MSC Krittika — H3RV — position and weather

sailwx.info

Track history (hours):
 
Tides and Currents Weather Stations Pressure Air Temp Water Temp Dewpoint Dewpoint Depression Visibility Wind Speed Wind Dir Waves Ship Positions

MSC Krittika

Last reported at 2014-Aug-29 23:29 UTC. Time now 2014-Aug-30 00:24 UTC.
Position N 24°26' E 119°10'.

Length 202 m; draft 8.4 m.

Type: Ship (hazmat cat A). MMSI: 354725000.

Date/timePositionNaut miles runAvg speedWind from/ knotsBaromVisibWave heightAir tempDewpointWater temp
2014-Aug-29 23:29N 24°26' E 119°10'  
2014-Aug-26 23:33N 34°59' E 139°32'1616.2
2014-Aug-26 22:33N 35°11' E 139°46'1212.2
2014-Aug-26 21:33N 35°23' E 139°42'5 4.7
2014-Aug-26 20:33N 35°28' E 139°42'0 0.0
2014-Aug-26 19:32N 35°28' E 139°42'0 0.0
2014-Aug-26 18:32N 35°28' E 139°42'0 0.0
2014-Aug-26 17:32N 35°28' E 139°42'0 0.0
2014-Aug-26 16:32N 35°28' E 139°42'0 0.0
2014-Aug-26 15:32N 35°28' E 139°42'0 0.0
2014-Aug-26 14:32N 35°28' E 139°42'0 0.0
2014-Aug-26 13:32N 35°28' E 139°42'0 0.0
2014-Aug-26 12:32N 35°28' E 139°42'0 0.0
2014-Aug-26 11:32N 35°28' E 139°42'0 0.0
2014-Aug-26 10:32N 35°28' E 139°42'0 0.0
2014-Aug-26 09:32N 35°28' E 139°42'1 0.8
2014-Aug-26 08:33N 35°28' E 139°43'7 6.9
2014-Aug-26 07:33N 35°21' E 139°45'1111.2
2014-Aug-26 06:33N 35°10' E 139°47'5 5.5
2014-Aug-26 05:33N 35°05' E 139°45'1413.7
2014-Aug-26 04:33N 34°52' E 139°37'  
2014-Aug-23 03:33N 34°37' E 135°17'7 7.4
2014-Aug-23 02:33N 34°31' E 135°11'1615.9
2014-Aug-23 01:33N 34°18' E 134°59'1312.6
2014-Aug-23 00:33N 34°06' E 134°59'1111.2
2014-Aug-22 23:33N 33°55' E 134°59'  
Track history (hours):
 
Tides and Currents Weather Stations Pressure Air Temp Water Temp Dewpoint Dewpoint Depression Visibility Wind Speed Wind Dir Waves Ship Positions

MSC Krittika

Last reported at 2014-Aug-29 23:29 UTC. Time now 2014-Aug-30 00:24 UTC.
Position N 24°26' E 119°10'.

Length 202 m; draft 8.4 m.

Type: Ship (hazmat cat A). MMSI: 354725000.

Date/timePositionNaut miles runAvg speedWind from/ knotsBaromVisibWave heightAir tempDewpointWater temp
2014-Aug-29 23:29N 24°26' E 119°10'  
2014-Aug-26 23:33N 34°59' E 139°32'1616.2
2014-Aug-26 22:33N 35°11' E 139°46'1212.2
2014-Aug-26 21:33N 35°23' E 139°42'5 4.7
2014-Aug-26 20:33N 35°28' E 139°42'0 0.0
2014-Aug-26 19:32N 35°28' E 139°42'0 0.0
2014-Aug-26 18:32N 35°28' E 139°42'0 0.0
2014-Aug-26 17:32N 35°28' E 139°42'0 0.0
2014-Aug-26 16:32N 35°28' E 139°42'0 0.0
2014-Aug-26 15:32N 35°28' E 139°42'0 0.0
2014-Aug-26 14:32N 35°28' E 139°42'0 0.0
2014-Aug-26 13:32N 35°28' E 139°42'0 0.0
2014-Aug-26 12:32N 35°28' E 139°42'0 0.0
2014-Aug-26 11:32N 35°28' E 139°42'0 0.0
2014-Aug-26 10:32N 35°28' E 139°42'0 0.0
2014-Aug-26 09:32N 35°28' E 139°42'1 0.8
2014-Aug-26 08:33N 35°28' E 139°43'7 6.9
2014-Aug-26 07:33N 35°21' E 139°45'1111.2
2014-Aug-26 06:33N 35°10' E 139°47'5 5.5
2014-Aug-26 05:33N 35°05' E 139°45'1413.7
2014-Aug-26 04:33N 34°52' E 139°37'  
2014-Aug-23 03:33N 34°37' E 135°17'7 7.4
2014-Aug-23 02:33N 34°31' E 135°11'1615.9
2014-Aug-23 01:33N 34°18' E 134°59'1312.6
2014-Aug-23 00:33N 34°06' E 134°59'1111.2
2014-Aug-22 23:33N 33°55' E 134°59'  

Dump ship's entire track history